Time;durP1;ratioP1;P1;durP2;ratioP2;P2;SDS_P1;SDS_P2;PMS_P1;PMS_P2;Temp;Humidity;BMP_temperature;BMP_pressure;BME280_temperature;BME280_humidity;BME280_pressure;Samples;Min_cycle;Max_cycle;Signal;HPM_P1;HPM_P2
2022/03/02 00:02:21;;;;;;;12.40;7.35;;;;;;;-0.37;58.41;95897.28;5065336;28;20043;-70
2022/03/02 00:04:46;;;;;;;11.65;7.38;;;;;;;-0.46;58.96;95893.44;5066861;28;20032;-70
2022/03/02 00:07:12;;;;;;;9.98;6.63;;;;;;;-0.46;58.77;95890.81;5067032;28;20029;-70
2022/03/02 00:09:38;;;;;;;11.32;6.93;;;;;;;-0.45;59.42;95884.59;5067976;28;20463;-70
2022/03/02 00:12:03;;;;;;;11.38;6.97;;;;;;;-0.46;59.22;95885.53;5066116;28;20033;-70
2022/03/02 00:14:29;;;;;;;10.93;6.75;;;;;;;-0.45;59.11;95886.41;5065842;28;20020;-70
2022/03/02 00:16:54;;;;;;;11.23;7.22;;;;;;;-0.44;59.41;95880.19;5049947;28;20025;-69
2022/03/02 00:19:19;;;;;;;11.23;7.38;;;;;;;-0.57;59.43;95873.06;5066390;28;20024;-70
2022/03/02 00:21:45;;;;;;;12.95;7.30;;;;;;;-0.59;60.22;95876.72;5049819;28;20016;-69
2022/03/02 00:24:10;;;;;;;14.52;7.80;;;;;;;-0.63;60.48;95874.28;5065078;28;20047;-70
2022/03/02 00:26:36;;;;;;;15.35;8.30;;;;;;;-0.60;59.97;95869.75;5066418;28;20454;-69
2022/03/02 00:29:01;;;;;;;18.33;8.65;;;;;;;-0.65;60.27;95872.69;5064281;28;20402;-69
2022/03/02 00:31:27;;;;;;;14.98;8.93;;;;;;;-0.67;60.60;95859.63;5065768;28;20078;-71
2022/03/02 00:33:52;;;;;;;16.08;9.40;;;;;;;-0.66;60.80;95860.47;5049471;28;20067;-70
2022/03/02 00:36:18;;;;;;;14.93;8.60;;;;;;;-0.70;60.99;95858.94;5065150;28;20399;-70
2022/03/02 00:38:43;;;;;;;19.17;9.25;;;;;;;-0.68;61.04;95863.19;5067749;28;20031;-71
2022/03/02 00:41:09;;;;;;;18.33;9.98;;;;;;;-0.69;61.17;95858.84;5065720;28;20031;-70
2022/03/02 00:43:34;;;;;;;18.38;10.60;;;;;;;-0.68;61.55;95854.44;5067669;28;20025;-70
2022/03/02 00:45:59;;;;;;;18.85;10.88;;;;;;;-0.79;61.50;95850.69;5066011;28;20074;-70
2022/03/02 00:48:25;;;;;;;21.20;12.60;;;;;;;-0.79;61.24;95855.94;5067154;28;20074;-70
2022/03/02 00:50:51;;;;;;;22.40;11.95;;;;;;;-0.88;61.30;95852.13;5082486;28;20055;-70
2022/03/02 00:53:16;;;;;;;23.45;12.80;;;;;;;-0.89;60.65;95839.06;5064735;28;20514;-70
2022/03/02 00:55:42;;;;;;;20.67;10.50;;;;;;;-0.89;60.46;95841.69;5067416;28;20044;-70
2022/03/02 00:58:08;;;;;;;17.25;10.38;;;;;;;-0.81;59.51;95835.94;5065562;28;20031;-69
2022/03/02 01:00:33;;;;;;;16.63;9.95;;;;;;;-0.88;59.37;95833.69;5067261;28;20039;-69
2022/03/02 01:02:59;;;;;;;17.98;9.82;;;;;;;-0.92;59.49;95826.91;5065249;28;20040;-69
2022/03/02 01:05:24;;;;;;;16.67;9.38;;;;;;;-0.98;59.48;95824.66;5065862;28;20494;-69
2022/03/02 01:07:50;;;;;;;19.85;10.45;;;;;;;-0.95;59.21;95816.56;5064718;28;20029;-70
2022/03/02 01:10:16;;;;;;;14.23;9.13;;;;;;;-0.99;59.39;95817.72;5066491;28;20035;-69
2022/03/02 01:12:42;;;;;;;17.52;8.82;;;;;;;-1.18;59.38;95816.22;5065584;28;20028;-69
2022/03/02 01:15:08;;;;;;;15.05;8.88;;;;;;;-1.12;59.22;95807.09;5047786;28;20521;-70
2022/03/02 01:17:33;;;;;;;16.65;8.52;;;;;;;-1.08;58.84;95813.03;5049211;28;20029;-70
2022/03/02 01:19:59;;;;;;;12.63;7.60;;;;;;;-1.05;58.46;95818.91;5047323;28;20028;-70
2022/03/02 01:22:25;;;;;;;12.25;7.90;;;;;;;-1.02;58.29;95816.13;5065522;28;20024;-69
2022/03/02 01:24:50;;;;;;;11.07;7.60;;;;;;;-1.00;57.98;95816.84;5047487;28;20491;-69
2022/03/02 01:27:15;;;;;;;12.38;7.90;;;;;;;-0.95;57.44;95807.84;5066407;28;20024;-71
2022/03/02 01:29:41;;;;;;;12.00;7.53;;;;;;;-1.05;57.94;95811.03;5064975;28;20437;-70
2022/03/02 01:32:08;;;;;;;15.50;8.43;;;;;;;-1.04;58.11;95809.25;5031049;28;20032;-69
2022/03/02 01:34:34;;;;;;;14.07;7.80;;;;;;;-0.96;57.55;95812.25;5065545;28;20445;-70
2022/03/02 01:37:00;;;;;;;16.17;8.60;;;;;;;-1.09;58.00;95806.91;5063876;28;20025;-70
2022/03/02 01:39:25;;;;;;;13.63;8.13;;;;;;;-1.02;57.49;95796.84;5066340;28;20036;-71
2022/03/02 01:41:50;;;;;;;14.02;8.27;;;;;;;-1.03;57.53;95800.41;5065262;28;20514;-69
2022/03/02 01:44:16;;;;;;;11.55;8.15;;;;;;;-1.03;57.81;95800.41;5048457;28;20024;-70
2022/03/02 01:46:41;;;;;;;14.32;8.23;;;;;;;-1.03;57.54;95793.34;5065635;28;20070;-70
2022/03/02 01:49:07;;;;;;;20.33;10.35;;;;;;;-1.01;57.32;95796.75;5064975;28;20028;-69
2022/03/02 01:51:33;;;;;;;18.13;9.45;;;;;;;-1.17;58.23;95796.00;5064637;28;20037;-70
2022/03/02 01:53:59;;;;;;;26.48;11.70;;;;;;;-1.29;58.87;95797.63;5064033;28;20025;-70
2022/03/02 01:56:24;;;;;;;23.23;10.98;;;;;;;-1.48;59.21;95795.28;5065236;28;20029;-70
2022/03/02 01:58:50;;;;;;;23.30;11.40;;;;;;;-1.57;59.28;95796.66;5080326;28;20410;-70
2022/03/02 02:01:15;;;;;;;22.15;10.75;;;;;;;-1.43;59.49;95796.66;5066370;28;20029;-70
2022/03/02 02:03:41;;;;;;;22.55;10.15;;;;;;;-1.41;59.18;95797.44;5063580;28;20056;-70
2022/03/02 02:06:08;;;;;;;18.90;10.52;;;;;;;-1.42;59.45;95787.81;5066398;28;20016;-70
2022/03/02 02:08:33;;;;;;;20.58;10.18;;;;;;;-1.34;59.31;95782.13;5065535;28;20036;-71
2022/03/02 02:10:59;;;;;;;16.83;9.77;;;;;;;-1.37;59.12;95777.03;5064351;28;20078;-70
2022/03/02 02:13:25;;;;;;;17.00;9.95;;;;;;;-1.37;58.86;95772.59;5064741;28;20032;-70
2022/03/02 02:15:50;;;;;;;16.40;9.80;;;;;;;-1.27;58.76;95772.03;5063669;28;20040;-69
2022/03/02 02:18:16;;;;;;;17.02;9.23;;;;;;;-1.45;59.10;95774.03;5048105;28;20040;-70
2022/03/02 02:20:41;;;;;;;17.20;9.63;;;;;;;-1.79;60.48;95774.31;5064710;28;20029;-70
2022/03/02 02:23:07;;;;;;;18.40;9.75;;;;;;;-1.85;60.79;95772.03;5065091;28;20032;-70
2022/03/02 02:25:33;;;;;;;14.65;9.18;;;;;;;-1.90;61.07;95778.41;5046854;28;20025;-70
2022/03/02 02:27:58;;;;;;;14.35;9.25;;;;;;;-2.02;61.02;95768.63;5064637;28;20063;-71
2022/03/02 02:30:24;;;;;;;15.45;8.75;;;;;;;-2.05;60.80;95768.81;5047587;28;20028;-71
2022/03/02 02:32:49;;;;;;;15.65;9.55;;;;;;;-2.11;60.79;95776.09;5065114;28;20029;-70
2022/03/02 02:35:15;;;;;;;17.13;9.27;;;;;;;-2.09;60.86;95775.16;5066445;28;20306;-69
2022/03/02 02:37:40;;;;;;;14.65;8.25;;;;;;;-2.03;59.89;95780.09;5062957;28;20036;-69
2022/03/02 02:40:11;;;;;;;17.63;9.63;;;;;;;-2.05;60.50;95777.56;5066242;28;20024;-71
2022/03/02 02:42:37;;;;;;;16.02;8.75;;;;;;;-2.06;60.09;95775.00;5063159;28;20098;-70
2022/03/02 02:45:03;;;;;;;13.75;8.23;;;;;;;-2.07;60.15;95779.41;5065982;28;20029;-70
2022/03/02 02:47:29;;;;;;;14.90;8.73;;;;;;;-2.12;60.08;95769.16;5063889;28;20021;-71
2022/03/02 02:49:54;;;;;;;16.00;9.15;;;;;;;-2.03;59.45;95774.81;5063924;28;20021;-70
2022/03/02 02:52:19;;;;;;;15.90;8.43;;;;;;;-2.02;59.83;95769.47;5068783;28;20027;-70
2022/03/02 02:54:47;;;;;;;16.92;9.00;;;;;;;-2.07;59.67;95773.28;5067888;28;20024;-70
2022/03/02 02:57:13;;;;;;;16.08;8.27;;;;;;;-2.20;60.08;95778.44;5069688;28;20037;-70
2022/03/02 02:59:38;;;;;;;14.40;8.20;;;;;;;-2.19;60.06;95773.06;5049816;28;20021;-71
2022/03/02 03:02:04;;;;;;;14.63;7.82;;;;;;;-2.27;60.44;95772.69;5068043;28;20044;-70
2022/03/02 03:04:30;;;;;;;14.30;8.40;;;;;;;-2.29;59.96;95766.69;5066822;28;20456;-70
2022/03/02 03:06:55;;;;;;;14.60;8.20;;;;;;;-2.34;60.20;95761.69;5069101;28;20033;-70
2022/03/02 03:09:20;;;;;;;14.25;7.60;;;;;;;-2.37;60.96;95767.13;5067575;28;20062;-70
2022/03/02 03:11:46;;;;;;;12.45;7.90;;;;;;;-2.34;60.54;95759.06;5068048;28;20031;-71
2022/03/02 03:14:12;;;;;;;14.27;7.22;;;;;;;-2.25;59.82;95769.03;5051448;28;20035;-70
2022/03/02 03:16:38;;;;;;;14.45;7.70;;;;;;;-2.19;59.99;95770.44;5066182;28;20051;-70
2022/03/02 03:19:04;;;;;;;12.93;7.05;;;;;;;-2.23;60.29;95774.22;5068023;28;20059;-71
2022/03/02 03:21:29;;;;;;;12.10;7.22;;;;;;;-2.27;60.18;95775.31;5067957;28;20040;-70
2022/03/02 03:23:55;;;;;;;11.40;7.40;;;;;;;-2.27;60.32;95777.94;5067388;28;20431;-70
2022/03/02 03:26:20;;;;;;;13.77;7.28;;;;;;;-2.37;60.79;95772.38;5068434;28;20494;-70
2022/03/02 03:28:45;;;;;;;12.00;6.78;;;;;;;-2.47;61.21;95777.31;5066664;28;20028;-69
2022/03/02 03:31:11;;;;;;;8.73;5.93;;;;;;;-2.41;60.62;95771.72;5067516;28;20040;-70
2022/03/02 03:33:36;;;;;;;11.82;6.63;;;;;;;-2.42;61.07;95766.53;5049559;28;20036;-71
2022/03/02 03:36:02;;;;;;;11.35;6.57;;;;;;;-2.38;60.80;95774.16;5069134;28;20039;-70
2022/03/02 03:38:27;;;;;;;10.50;6.93;;;;;;;-2.28;60.43;95771.84;5067718;28;20028;-70
2022/03/02 03:40:53;;;;;;;12.45;6.65;;;;;;;-2.32;60.69;95770.31;5067391;28;20104;-70
2022/03/02 03:43:18;;;;;;;10.35;6.45;;;;;;;-2.33;60.58;95766.00;5067600;28;20029;-71
2022/03/02 03:45:44;;;;;;;11.02;6.95;;;;;;;-2.38;60.62;95771.53;5068294;28;20024;-71
2022/03/02 03:48:09;;;;;;;10.18;6.85;;;;;;;-2.39;60.92;95763.75;5068179;28;20031;-70
2022/03/02 03:50:35;;;;;;;13.70;8.10;;;;;;;-2.29;60.41;95769.31;5049758;28;20024;-70
2022/03/02 03:53:00;;;;;;;12.73;7.88;;;;;;;-2.25;59.48;95768.19;5067152;28;20043;-70
2022/03/02 03:55:26;;;;;;;11.88;6.95;;;;;;;-2.33;59.39;95771.25;5065834;28;20020;-71
2022/03/02 03:57:51;;;;;;;11.80;6.78;;;;;;;-2.41;59.78;95771.72;5068296;28;20025;-71
2022/03/02 04:00:18;;;;;;;11.32;7.00;;;;;;;-2.40;59.55;95765.50;5065627;28;20040;-71
2022/03/02 04:02:43;;;;;;;12.32;6.68;;;;;;;-2.47;60.51;95764.19;5067933;28;20053;-70
2022/03/02 04:05:09;;;;;;;10.50;6.32;;;;;;;-2.47;60.51;95761.56;5067432;28;20033;-71
2022/03/02 04:07:34;;;;;;;11.75;7.00;;;;;;;-2.54;60.48;95760.22;5066756;28;20025;-70
2022/03/02 04:10:00;;;;;;;10.85;6.70;;;;;;;-2.58;60.74;95756.06;5067874;28;20108;-70
2022/03/02 04:12:25;;;;;;;11.15;6.65;;;;;;;-2.53;60.45;95760.13;5066930;28;20024;-70
2022/03/02 04:14:51;;;;;;;13.10;7.22;;;;;;;-2.58;61.18;95758.69;5066874;28;20024;-71
2022/03/02 04:17:16;;;;;;;11.65;7.65;;;;;;;-2.59;61.50;95755.22;5066449;28;20024;-72
2022/03/02 04:19:42;;;;;;;12.40;7.68;;;;;;;-2.55;61.16;95756.75;5066888;28;20446;-71
2022/03/02 04:22:07;;;;;;;18.63;7.43;;;;;;;-2.67;61.53;95747.78;5048618;28;20025;-71
2022/03/02 04:24:33;;;;;;;14.93;7.78;;;;;;;-2.65;61.52;95740.66;5067865;28;20032;-72
2022/03/02 04:26:58;;;;;;;13.70;7.93;;;;;;;-2.63;61.84;95746.66;5067160;28;20460;-71
2022/03/02 04:29:23;;;;;;;14.48;8.00;;;;;;;-2.46;61.36;95747.47;5066916;28;20494;-71
2022/03/02 04:31:49;;;;;;;13.40;7.55;;;;;;;-2.42;61.79;95742.91;5066478;28;20016;-70
2022/03/02 04:34:14;;;;;;;13.07;8.57;;;;;;;-2.38;61.53;95744.41;5065952;28;20033;-69
2022/03/02 04:36:40;;;;;;;14.80;8.50;;;;;;;-2.38;61.90;95739.16;5066652;28;20032;-70
2022/03/02 04:39:05;;;;;;;18.13;9.02;;;;;;;-2.44;62.49;95747.41;5065647;28;20024;-71
2022/03/02 04:41:31;;;;;;;17.50;8.57;;;;;;;-2.49;63.10;95738.00;5067639;28;20021;-71
2022/03/02 04:43:56;;;;;;;20.05;9.35;;;;;;;-2.51;63.23;95746.91;5066272;28;20074;-71
2022/03/02 04:46:21;;;;;;;15.95;9.70;;;;;;;-2.59;64.05;95747.34;5067189;28;20418;-71
2022/03/02 04:48:47;;;;;;;14.15;9.15;;;;;;;-2.60;64.21;95743.03;5067105;28;20422;-70
2022/03/02 04:51:12;;;;;;;20.52;10.48;;;;;;;-2.42;64.48;95737.66;5066128;28;20471;-70
2022/03/02 04:53:38;;;;;;;16.13;9.48;;;;;;;-2.32;64.16;95740.59;5066368;28;20530;-70
2022/03/02 04:56:03;;;;;;;16.00;8.80;;;;;;;-2.27;64.67;95735.88;5065610;28;20430;-70
2022/03/02 04:58:29;;;;;;;14.63;9.13;;;;;;;-2.18;65.00;95734.50;5067403;28;20112;-69
2022/03/02 05:00:55;;;;;;;14.98;8.32;;;;;;;-2.01;63.99;95729.09;5065775;28;20354;-70
2022/03/02 05:03:21;;;;;;;13.77;8.20;;;;;;;-1.93;64.00;95738.28;5048849;28;20041;-70
2022/03/02 05:05:46;;;;;;;13.02;8.43;;;;;;;-1.94;64.37;95726.94;5066549;28;20519;-69
2022/03/02 05:08:12;;;;;;;16.65;8.70;;;;;;;-1.94;64.65;95736.63;5066154;28;20379;-69
2022/03/02 05:10:37;;;;;;;13.10;7.95;;;;;;;-1.87;64.64;95733.50;5065787;28;20418;-72
2022/03/02 05:13:03;;;;;;;14.40;8.40;;;;;;;-1.84;65.80;95743.03;5064185;28;20024;-70
2022/03/02 05:15:30;;;;;;;15.75;8.85;;;;;;;-1.71;65.25;95737.88;5065437;28;20020;-69
2022/03/02 05:17:55;;;;;;;15.63;9.10;;;;;;;-1.63;64.03;95735.59;5064300;28;20024;-70
2022/03/02 05:20:21;;;;;;;14.80;9.07;;;;;;;-1.62;64.29;95733.81;5066854;28;20036;-70
2022/03/02 05:22:47;;;;;;;17.02;9.65;;;;;;;-1.59;64.36;95731.00;5064551;28;20020;-70
2022/03/02 05:25:13;;;;;;;12.73;8.70;;;;;;;-1.55;64.06;95729.03;5066331;28;20093;-70
2022/03/02 05:27:39;;;;;;;17.08;9.07;;;;;;;-1.45;64.05;95731.94;5048438;28;20111;-70
2022/03/02 05:30:05;;;;;;;17.83;9.45;;;;;;;-1.44;64.13;95728.34;5064242;28;20031;-69
2022/03/02 05:32:30;;;;;;;13.18;7.95;;;;;;;-1.42;64.57;95737.84;5065510;28;20789;-71
2022/03/02 05:34:56;;;;;;;14.80;8.90;;;;;;;-1.31;64.52;95728.44;5065320;28;20028;-69
2022/03/02 05:37:21;;;;;;;15.45;9.20;;;;;;;-1.30;64.48;95730.13;5066759;28;20029;-70
2022/03/02 05:39:47;;;;;;;18.17;9.00;;;;;;;-1.29;64.82;95739.72;5065269;28;20029;-70
2022/03/02 05:42:12;;;;;;;14.38;8.82;;;;;;;-1.22;64.43;95733.13;5066334;28;20028;-71
2022/03/02 05:44:38;;;;;;;14.73;9.35;;;;;;;-1.16;64.72;95726.63;5065759;28;20028;-70
2022/03/02 05:47:04;;;;;;;15.80;9.85;;;;;;;-1.14;64.67;95728.22;5066012;28;20095;-70
2022/03/02 05:49:29;;;;;;;16.38;9.68;;;;;;;-1.06;64.29;95726.88;5064839;28;20024;-70
2022/03/02 05:51:54;;;;;;;16.25;9.50;;;;;;;-1.16;65.00;95726.63;5065331;28;20025;-71
2022/03/02 05:54:20;;;;;;;17.25;9.32;;;;;;;-1.11;65.25;95729.78;5065441;28;20017;-71
2022/03/02 05:56:45;;;;;;;14.52;9.10;;;;;;;-1.14;65.24;95724.72;5065094;28;20024;-71
2022/03/02 05:59:12;;;;;;;16.02;9.88;;;;;;;-1.16;65.38;95722.19;5066513;28;20102;-70
2022/03/02 06:01:38;;;;;;;15.23;9.32;;;;;;;-1.19;65.59;95732.09;5064809;28;20024;-69
2022/03/02 06:04:04;;;;;;;14.48;9.52;;;;;;;-1.12;65.44;95726.34;5049083;28;20051;-71
2022/03/02 06:06:31;;;;;;;17.38;9.73;;;;;;;-1.10;65.85;95730.66;5064447;28;20029;-69
2022/03/02 06:08:56;;;;;;;18.00;9.18;;;;;;;-1.02;65.78;95731.88;5063944;28;20028;-70
2022/03/02 06:11:22;;;;;;;17.63;9.40;;;;;;;-1.10;65.73;95738.53;5048218;28;20117;-70
2022/03/02 06:13:48;;;;;;;17.17;10.10;;;;;;;-1.03;65.78;95739.88;5046971;28;20032;-71
2022/03/02 06:16:14;;;;;;;16.95;10.40;;;;;;;-1.06;65.92;95737.41;5066457;28;20024;-71
2022/03/02 06:18:40;;;;;;;16.10;10.30;;;;;;;-1.08;66.19;95740.13;5080216;28;20055;-70
2022/03/02 06:21:05;;;;;;;23.35;11.57;;;;;;;-0.97;66.01;95739.47;5065060;28;20039;-72
2022/03/02 06:23:31;;;;;;;16.17;9.27;;;;;;;-0.92;66.22;95737.38;5063995;28;20024;-70
2022/03/02 06:25:56;;;;;;;20.95;10.98;;;;;;;-0.86;66.48;95728.25;5066734;28;20051;-72
2022/03/02 06:28:25;;;;;;;17.55;10.43;;;;;;;-0.82;66.72;95734.16;5068455;28;20029;-71
2022/03/02 06:30:51;;;;;;;20.45;11.50;;;;;;;-0.64;65.77;95725.06;5068618;28;20470;-70
2022/03/02 06:33:20;;;;;;;17.10;10.13;;;;;;;-0.57;65.98;95728.13;5069046;28;20036;-71
2022/03/02 06:35:49;;;;;;;17.45;9.90;;;;;;;-0.48;65.67;95724.03;5083611;28;20028;-71
2022/03/02 06:38:15;;;;;;;15.98;10.95;;;;;;;-0.50;65.34;95729.41;5052272;28;20020;-71
2022/03/02 06:40:41;;;;;;;22.52;12.27;;;;;;;-0.48;65.33;95721.41;5067274;28;20032;-70
2022/03/02 06:43:10;;;;;;;23.45;13.25;;;;;;;-0.43;65.91;95724.59;5068258;28;20035;-69
2022/03/02 06:46:19;;;;;;;24.58;12.15;;;;;;;-0.38;65.38;95726.91;5084786;28;20430;-70
2022/03/02 06:48:55;;;;;;;21.80;12.05;;;;;;;-0.28;65.37;95721.88;5029341;28;20673;-69
2022/03/02 06:51:21;;;;;;;21.15;11.82;;;;;;;-0.31;65.45;95722.06;5068415;28;20483;-70
2022/03/02 06:53:47;;;;;;;21.02;11.93;;;;;;;-0.29;65.22;95721.03;5068505;28;20152;-69
2022/03/02 06:56:12;;;;;;;20.67;12.43;;;;;;;-0.27;65.18;95713.00;5084461;28;20104;-70
2022/03/02 06:58:43;;;;;;;19.98;11.40;;;;;;;-0.20;65.57;95713.44;5068036;28;20593;-71
2022/03/02 07:01:09;;;;;;;20.70;11.07;;;;;;;-0.12;65.34;95713.78;5066858;28;20025;-70
2022/03/02 07:03:37;;;;;;;19.25;11.13;;;;;;;-0.03;65.81;95712.28;5084708;28;20064;-70
2022/03/02 07:06:03;;;;;;;16.73;10.18;;;;;;;0.20;64.51;95715.16;5066644;28;20048;-70
2022/03/02 07:08:28;;;;;;;15.60;9.63;;;;;;;0.19;64.80;95713.47;5084988;28;20020;-69
2022/03/02 07:10:53;;;;;;;18.65;10.88;;;;;;;0.21;65.42;95711.59;5050491;28;20376;-71
2022/03/02 07:13:19;;;;;;;19.08;10.30;;;;;;;0.36;64.76;95704.38;5084664;28;20494;-70
2022/03/02 07:15:44;;;;;;;16.10;10.20;;;;;;;0.40;64.27;95703.22;5067460;28;20082;-70
2022/03/02 07:18:10;;;;;;;17.27;10.32;;;;;;;0.54;63.78;95698.75;5068124;28;20020;-70
2022/03/02 07:20:39;;;;;;;17.20;10.73;;;;;;;0.49;64.49;95704.38;5067620;28;20032;-72
2022/03/02 07:23:05;;;;;;;20.35;10.52;;;;;;;0.46;64.49;95696.66;5067560;28;20029;-69
2022/03/02 07:25:35;;;;;;;18.63;11.30;;;;;;;0.54;64.91;95696.13;5067942;28;20029;-69
2022/03/02 07:28:01;;;;;;;19.40;11.65;;;;;;;0.57;65.13;95696.75;5066395;28;20034;-69
2022/03/02 07:30:27;;;;;;;22.27;12.50;;;;;;;0.63;64.75;95705.19;5084291;28;20028;-70
2022/03/02 07:32:56;;;;;;;24.17;13.38;;;;;;;0.60;65.12;95704.47;5083829;28;20032;-70
2022/03/02 07:35:23;;;;;;;24.35;13.15;;;;;;;0.58;64.81;95702.88;5066774;28;20028;-70
2022/03/02 07:37:48;;;;;;;29.85;15.23;;;;;;;0.65;64.85;95700.63;5068246;28;20032;-70
2022/03/02 07:40:14;;;;;;;23.67;14.45;;;;;;;0.64;63.94;95698.97;5083041;28;20102;-71
2022/03/02 07:42:40;;;;;;;25.73;14.82;;;;;;;0.63;64.91;95694.66;5069006;28;20103;-71
2022/03/02 07:45:06;;;;;;;25.08;13.82;;;;;;;0.68;64.85;95692.50;5066256;28;20033;-70
2022/03/02 07:47:32;;;;;;;26.45;14.25;;;;;;;0.71;64.44;95681.75;5067390;28;20032;-70
2022/03/02 07:49:57;;;;;;;24.98;14.13;;;;;;;0.70;64.07;95677.41;5066388;28;20047;-72
2022/03/02 07:52:25;;;;;;;24.70;14.65;;;;;;;0.71;64.32;95682.56;5068223;28;20487;-71
2022/03/02 07:54:54;;;;;;;30.48;15.85;;;;;;;0.85;64.13;95683.38;5066887;28;20029;-71
2022/03/02 07:57:19;;;;;;;23.23;14.05;;;;;;;0.90;63.60;95681.25;5065958;28;20024;-70
2022/03/02 07:59:44;;;;;;;24.17;14.07;;;;;;;0.89;63.53;95674.28;5068497;28;20086;-72
2022/03/02 08:02:11;;;;;;;23.77;13.77;;;;;;;0.93;63.38;95683.69;5082437;28;20041;-72
2022/03/02 08:04:37;;;;;;;21.42;13.15;;;;;;;0.96;63.27;95687.88;5067319;28;20024;-73
2022/03/02 08:07:03;;;;;;;20.95;12.63;;;;;;;0.87;63.52;95684.13;5065805;28;20067;-71
2022/03/02 08:09:31;;;;;;;20.65;12.43;;;;;;;0.91;64.03;95676.81;5066593;28;20029;-70
2022/03/02 08:11:58;;;;;;;23.02;12.63;;;;;;;0.96;64.13;95682.59;5067697;28;20460;-70
2022/03/02 08:14:24;;;;;;;23.13;13.32;;;;;;;0.98;64.44;95670.13;5065815;28;20062;-70
2022/03/02 08:16:50;;;;;;;22.15;13.90;;;;;;;1.12;63.86;95674.41;5068149;28;20021;-71
2022/03/02 08:19:16;;;;;;;23.95;13.77;;;;;;;1.20;63.73;95677.34;5081815;28;20028;-70
2022/03/02 08:21:42;;;;;;;26.95;14.68;;;;;;;1.32;63.26;95674.75;5083823;28;20028;-70
2022/03/02 08:24:09;;;;;;;27.45;16.02;;;;;;;1.41;62.45;95665.28;5048789;28;20032;-73
2022/03/02 08:26:37;;;;;;;23.80;13.98;;;;;;;1.41;62.96;95668.78;5066563;28;20031;-70
2022/03/02 08:29:04;;;;;;;28.65;16.60;;;;;;;1.51;62.46;95673.38;5082313;28;20461;-70
2022/03/02 08:31:30;;;;;;;24.77;14.68;;;;;;;1.47;62.16;95673.59;5082331;28;20032;-70
2022/03/02 08:33:57;;;;;;;24.02;14.70;;;;;;;1.59;61.34;95669.19;5066369;28;20089;-71
2022/03/02 08:36:22;;;;;;;25.40;15.00;;;;;;;1.64;61.03;95657.41;5064992;28;20037;-69
2022/03/02 08:38:51;;;;;;;24.42;14.73;;;;;;;1.66;61.82;95660.81;5066453;28;20032;-70
2022/03/02 08:41:18;;;;;;;24.75;14.25;;;;;;;1.71;61.72;95659.47;5066446;28;20030;-70
2022/03/02 08:43:44;;;;;;;25.50;15.20;;;;;;;1.65;62.11;95661.75;5066410;28;20035;-68
2022/03/02 08:46:10;;;;;;;23.63;14.00;;;;;;;1.85;60.87;95657.59;5066428;28;20035;-71
2022/03/02 08:48:35;;;;;;;28.45;15.48;;;;;;;1.90;60.34;95641.38;5064822;28;20025;-70
2022/03/02 08:51:01;;;;;;;27.30;14.85;;;;;;;1.95;60.52;95645.34;5067040;28;20029;-70
2022/03/02 08:53:26;;;;;;;26.33;14.52;;;;;;;2.05;60.20;95645.47;5064626;28;20032;-70
2022/03/02 08:55:52;;;;;;;28.80;14.70;;;;;;;2.09;60.19;95635.50;5066211;28;20016;-69
2022/03/02 08:58:17;;;;;;;28.95;15.48;;;;;;;2.20;59.94;95634.66;5081021;28;20033;-69
2022/03/02 09:00:43;;;;;;;29.08;14.80;;;;;;;2.40;59.96;95638.38;5067467;28;20025;-70
2022/03/02 09:03:08;;;;;;;24.67;14.05;;;;;;;2.55;58.77;95620.44;5064247;28;20048;-71
2022/03/02 09:05:34;;;;;;;25.27;15.15;;;;;;;2.75;57.74;95631.25;5065845;28;20020;-71
2022/03/02 09:07:59;;;;;;;26.52;14.50;;;;;;;2.66;57.79;95613.44;5065382;28;20025;-70
2022/03/02 09:10:25;;;;;;;22.02;14.13;;;;;;;2.77;57.43;95621.38;5064648;28;20025;-70
2022/03/02 09:12:50;;;;;;;24.30;14.27;;;;;;;2.99;57.13;95616.97;5067264;28;20460;-70
2022/03/02 09:15:16;;;;;;;25.17;14.35;;;;;;;3.14;56.03;95614.03;5063997;28;20068;-70
2022/03/02 09:17:41;;;;;;;25.75;14.55;;;;;;;3.28;55.29;95608.44;5065897;28;20032;-70
2022/03/02 09:20:08;;;;;;;25.00;14.40;;;;;;;3.28;55.42;95611.09;5065383;28;20028;-70
2022/03/02 09:22:33;;;;;;;22.45;13.32;;;;;;;3.26;55.24;95605.06;5065821;28;20028;-70
2022/03/02 09:24:59;;;;;;;21.58;12.85;;;;;;;3.25;53.97;95600.75;5064483;28;20028;-70
2022/03/02 09:27:27;;;;;;;24.63;14.23;;;;;;;3.13;54.29;95599.13;5081867;28;20020;-71
2022/03/02 09:29:53;;;;;;;21.48;12.20;;;;;;;3.18;53.49;95599.53;5065468;28;20104;-71
2022/03/02 09:32:19;;;;;;;24.15;12.73;;;;;;;3.14;52.71;95595.47;5064030;28;20521;-70
2022/03/02 09:34:50;;;;;;;21.70;12.70;;;;;;;3.35;53.17;95592.88;5082714;28;20024;-70
2022/03/02 09:37:15;;;;;;;26.20;14.15;;;;;;;3.44;53.30;95583.28;5063890;28;20039;-68
2022/03/02 09:39:42;;;;;;;19.45;12.35;;;;;;;3.29;53.73;95580.94;5082311;28;20458;-70
2022/03/02 09:42:15;;;;;;;22.75;14.25;;;;;;;3.55;53.78;95591.19;5065503;28;20025;-70
2022/03/02 09:44:45;;;;;;;25.40;12.82;;;;;;;3.42;53.03;95591.38;5065055;28;20043;-70
2022/03/02 09:47:18;;;;;;;25.83;15.40;;;;;;;3.21;52.54;95581.59;5066543;28;20111;-70
2022/03/02 09:49:48;;;;;;;22.80;12.77;;;;;;;3.14;53.27;95576.94;5080769;28;20399;-71
2022/03/02 09:52:20;;;;;;;24.50;12.95;;;;;;;3.05;53.80;95576.72;5065270;28;20036;-70
2022/03/02 09:54:50;;;;;;;21.45;12.40;;;;;;;3.18;52.25;95576.53;5065376;28;20409;-70
2022/03/02 09:57:17;;;;;;;22.33;12.38;;;;;;;3.20;51.97;95576.41;5065100;28;20479;-70
2022/03/02 09:59:43;;;;;;;20.60;11.05;;;;;;;3.40;51.51;95580.03;5081852;28;20036;-70
2022/03/02 10:02:10;;;;;;;21.35;12.27;;;;;;;3.54;51.20;95576.25;5071077;28;20044;-69
2022/03/02 10:04:36;;;;;;;21.00;12.35;;;;;;;3.80;50.37;95575.84;5073276;28;20402;-70
2022/03/02 10:09:51;;;;;;;28.55;12.55;;;;;;;3.90;50.22;95559.13;5072261;28;20035;-70
2022/03/02 10:12:20;;;;;;;24.95;13.98;;;;;;;3.87;51.39;95565.53;5087177;28;20047;-70
2022/03/02 10:14:46;;;;;;;18.75;12.10;;;;;;;3.83;50.25;95556.16;5073320;28;20028;-71
2022/03/02 10:17:12;;;;;;;19.25;11.82;;;;;;;4.02;49.96;95562.53;5071215;28;20038;-70
2022/03/02 10:20:00;;;;;;;18.08;11.80;;;;;;;3.94;49.29;95552.56;5087430;28;20029;-70
2022/03/02 10:22:40;;;;;;;19.25;11.23;;;;;;;3.90;48.43;95551.16;5071680;28;20025;-71
2022/03/02 10:25:10;;;;;;;17.30;10.27;;;;;;;3.81;48.21;95552.78;5071605;28;20371;-70
2022/03/02 10:27:58;;;;;;;20.92;12.55;;;;;;;3.80;49.30;95551.97;5071381;28;20024;-69
2022/03/02 10:30:23;;;;;;;18.42;10.60;;;;;;;3.83;49.18;95540.25;5071446;28;20039;-70
2022/03/02 10:32:49;;;;;;;26.38;11.70;;;;;;;3.94;49.10;95532.19;5070301;28;20025;-69
2022/03/02 10:35:15;;;;;;;16.80;11.13;;;;;;;3.98;48.81;95529.28;5088596;28;20040;-70
2022/03/02 10:37:58;;;;;;;18.02;11.40;;;;;;;3.98;48.45;95530.13;5086545;28;20035;-70
2022/03/02 10:40:24;;;;;;;19.83;12.30;;;;;;;4.05;48.50;95517.13;5087575;28;20461;-71
2022/03/02 10:42:59;;;;;;;18.85;12.15;;;;;;;4.13;48.69;95524.41;5070292;28;20494;-70
2022/03/02 10:45:29;;;;;;;20.38;11.93;;;;;;;4.24;48.50;95516.34;5070873;28;20446;-71
2022/03/02 10:48:16;;;;;;;19.73;12.32;;;;;;;4.26;47.65;95514.41;5071385;28;20032;-70
2022/03/02 10:50:42;;;;;;;19.35;11.68;;;;;;;4.17;47.12;95508.09;5083868;28;20040;-71
2022/03/02 10:53:13;;;;;;;20.05;11.25;;;;;;;4.26;47.68;95501.13;5072854;28;20025;-69
2022/03/02 10:55:41;;;;;;;21.63;12.23;;;;;;;4.30;47.86;95499.06;5071451;28;20021;-70
2022/03/02 10:58:06;;;;;;;19.67;12.13;;;;;;;4.34;48.40;95497.78;5087679;28;20074;-70
2022/03/02 11:00:31;;;;;;;19.98;12.38;;;;;;;4.24;46.63;95496.94;5072069;28;20036;-70
2022/03/02 11:02:57;;;;;;;20.35;11.57;;;;;;;3.91;47.58;95494.47;5070090;28;20507;-70
2022/03/02 11:05:28;;;;;;;19.92;12.10;;;;;;;3.86;48.16;95486.06;5072656;28;20025;-71
2022/03/02 11:07:54;;;;;;;21.33;12.00;;;;;;;3.84;48.93;95472.91;5069415;28;20642;-70
2022/03/02 11:10:21;;;;;;;19.05;11.85;;;;;;;4.04;47.79;95478.31;5073098;28;20119;-70
2022/03/02 11:12:48;;;;;;;21.50;11.63;;;;;;;4.06;47.21;95471.06;5083210;28;20031;-70
2022/03/02 11:15:14;;;;;;;18.00;11.68;;;;;;;3.96;47.46;95471.00;5067975;28;20025;-70
2022/03/02 11:17:56;;;;;;;19.98;11.73;;;;;;;4.05;47.30;95472.84;5067220;28;20029;-71
2022/03/02 11:20:24;;;;;;;15.77;10.60;;;;;;;4.02;47.44;95443.94;5083510;28;20116;-70
2022/03/02 11:22:52;;;;;;;17.95;11.02;;;;;;;4.17;46.81;95451.50;5069153;28;20032;-70
2022/03/02 11:25:17;;;;;;;17.20;11.27;;;;;;;4.28;47.27;95440.78;5066333;28;20035;-71